sensor_id;sensor_type;location;lat;lon;timestamp;temperature;humidity
12885;DHT22;6510;51.362;7.370;2022-10-31T00:01:48;13.50;99.90
12885;DHT22;6510;51.362;7.370;2022-10-31T00:04:16;13.50;99.90
12885;DHT22;6510;51.362;7.370;2022-10-31T00:06:42;13.40;99.90
12885;DHT22;6510;51.362;7.370;2022-10-31T00:09:09;13.40;99.90
12885;DHT22;6510;51.362;7.370;2022-10-31T00:11:35;13.40;99.90
12885;DHT22;6510;51.362;7.370;2022-10-31T00:14:01;13.30;99.90
12885;DHT22;6510;51.362;7.370;2022-10-31T00:16:28;13.40;99.90
12885;DHT22;6510;51.362;7.370;2022-10-31T00:18:55;13.40;99.90
12885;DHT22;6510;51.362;7.370;2022-10-31T00:21:22;13.40;99.90
12885;DHT22;6510;51.362;7.370;2022-10-31T00:23:48;13.50;99.90
12885;DHT22;6510;51.362;7.370;2022-10-31T00:26:14;13.50;99.90
12885;DHT22;6510;51.362;7.370;2022-10-31T00:28:39;13.40;99.90
12885;DHT22;6510;51.362;7.370;2022-10-31T00:31:08;13.40;99.90
12885;DHT22;6510;51.362;7.370;2022-10-31T00:33:35;13.40;99.90
12885;DHT22;6510;51.362;7.370;2022-10-31T00:36:02;13.50;99.90
12885;DHT22;6510;51.362;7.370;2022-10-31T00:38:28;13.50;99.90
12885;DHT22;6510;51.362;7.370;2022-10-31T00:40:54;13.50;99.90
12885;DHT22;6510;51.362;7.370;2022-10-31T00:43:19;13.50;99.90
12885;DHT22;6510;51.362;7.370;2022-10-31T00:45:45;13.60;99.90
12885;DHT22;6510;51.362;7.370;2022-10-31T00:48:11;13.60;99.90
12885;DHT22;6510;51.362;7.370;2022-10-31T00:50:37;13.60;99.90
12885;DHT22;6510;51.362;7.370;2022-10-31T00:53:03;13.50;99.90
12885;DHT22;6510;51.362;7.370;2022-10-31T00:55:28;13.50;99.90
12885;DHT22;6510;51.362;7.370;2022-10-31T00:57:54;13.50;99.90
12885;DHT22;6510;51.362;7.370;2022-10-31T01:00:20;13.50;99.90
12885;DHT22;6510;51.362;7.370;2022-10-31T01:02:45;13.40;99.90
12885;DHT22;6510;51.362;7.370;2022-10-31T01:05:11;13.40;99.90
12885;DHT22;6510;51.362;7.370;2022-10-31T01:07:41;13.40;99.90
12885;DHT22;6510;51.362;7.370;2022-10-31T01:10:08;13.40;99.90
12885;DHT22;6510;51.362;7.370;2022-10-31T01:12:46;13.40;99.90
12885;DHT22;6510;51.362;7.370;2022-10-31T01:15:14;13.40;99.90
12885;DHT22;6510;51.362;7.370;2022-10-31T01:17:40;13.50;99.90
12885;DHT22;6510;51.362;7.370;2022-10-31T01:20:07;13.50;99.90
12885;DHT22;6510;51.362;7.370;2022-10-31T01:22:33;13.60;99.90
12885;DHT22;6510;51.362;7.370;2022-10-31T01:25:02;13.60;99.90
12885;DHT22;6510;51.362;7.370;2022-10-31T01:27:28;13.60;99.90
12885;DHT22;6510;51.362;7.370;2022-10-31T01:29:53;13.70;99.90
12885;DHT22;6510;51.362;7.370;2022-10-31T01:32:19;13.70;99.90
12885;DHT22;6510;51.362;7.370;2022-10-31T01:34:44;13.80;99.90
12885;DHT22;6510;51.362;7.370;2022-10-31T01:37:10;13.80;99.90
12885;DHT22;6510;51.362;7.370;2022-10-31T01:39:36;13.80;99.90
12885;DHT22;6510;51.362;7.370;2022-10-31T01:42:01;13.80;99.90
12885;DHT22;6510;51.362;7.370;2022-10-31T01:47:01;13.70;99.90
12885;DHT22;6510;51.362;7.370;2022-10-31T01:49:40;13.70;99.90
12885;DHT22;6510;51.362;7.370;2022-10-31T01:52:27;13.60;99.90
12885;DHT22;6510;51.362;7.370;2022-10-31T01:55:03;13.60;99.90
12885;DHT22;6510;51.362;7.370;2022-10-31T01:57:31;13.60;99.90
12885;DHT22;6510;51.362;7.370;2022-10-31T02:00:00;13.60;99.90
12885;DHT22;6510;51.362;7.370;2022-10-31T02:02:27;13.50;99.90
12885;DHT22;6510;51.362;7.370;2022-10-31T02:04:58;13.50;99.90
12885;DHT22;6510;51.362;7.370;2022-10-31T02:07:51;13.30;99.90
12885;DHT22;6510;51.362;7.370;2022-10-31T02:10:21;13.10;99.90
12885;DHT22;6510;51.362;7.370;2022-10-31T02:12:47;13.00;99.90
12885;DHT22;6510;51.362;7.370;2022-10-31T02:15:13;12.90;99.90
12885;DHT22;6510;51.362;7.370;2022-10-31T02:17:39;12.90;99.90
12885;DHT22;6510;51.362;7.370;2022-10-31T02:22:43;12.70;99.90
12885;DHT22;6510;51.362;7.370;2022-10-31T02:31:16;12.60;99.90
12885;DHT22;6510;51.362;7.370;2022-10-31T02:33:50;12.60;99.90
12885;DHT22;6510;51.362;7.370;2022-10-31T02:36:44;12.60;99.90
12885;DHT22;6510;51.362;7.370;2022-10-31T02:39:26;12.60;99.90
12885;DHT22;6510;51.362;7.370;2022-10-31T02:42:09;12.60;99.90
12885;DHT22;6510;51.362;7.370;2022-10-31T02:44:45;12.40;99.90
12885;DHT22;6510;51.362;7.370;2022-10-31T02:47:17;12.40;99.90
12885;DHT22;6510;51.362;7.370;2022-10-31T02:50:14;12.40;99.90
12885;DHT22;6510;51.362;7.370;2022-10-31T02:52:41;12.40;99.90
12885;DHT22;6510;51.362;7.370;2022-10-31T02:57:48;12.20;99.90
12885;DHT22;6510;51.362;7.370;2022-10-31T03:00:15;12.30;99.90
12885;DHT22;6510;51.362;7.370;2022-10-31T03:03:17;12.30;99.90
12885;DHT22;6510;51.362;7.370;2022-10-31T03:11:22;12.10;99.90
12885;DHT22;6510;51.362;7.370;2022-10-31T03:14:03;12.00;99.90
12885;DHT22;6510;51.362;7.370;2022-10-31T03:16:51;12.00;99.90
12885;DHT22;6510;51.362;7.370;2022-10-31T03:19:28;12.10;99.90
12885;DHT22;6510;51.362;7.370;2022-10-31T03:24:35;11.80;99.90
12885;DHT22;6510;51.362;7.370;2022-10-31T03:27:03;11.80;99.90
12885;DHT22;6510;51.362;7.370;2022-10-31T03:29:33;11.70;99.90
12885;DHT22;6510;51.362;7.370;2022-10-31T03:32:05;11.60;99.90
12885;DHT22;6510;51.362;7.370;2022-10-31T03:34:32;11.70;99.90
12885;DHT22;6510;51.362;7.370;2022-10-31T03:37:02;11.80;99.90
12885;DHT22;6510;51.362;7.370;2022-10-31T03:39:29;11.80;99.90
12885;DHT22;6510;51.362;7.370;2022-10-31T03:42:20;11.90;99.90
12885;DHT22;6510;51.362;7.370;2022-10-31T03:44:57;11.70;99.90
12885;DHT22;6510;51.362;7.370;2022-10-31T03:47:24;11.50;99.90
12885;DHT22;6510;51.362;7.370;2022-10-31T03:49:50;11.60;99.90
12885;DHT22;6510;51.362;7.370;2022-10-31T03:54:59;11.50;99.90
12885;DHT22;6510;51.362;7.370;2022-10-31T03:57:35;11.50;99.90
12885;DHT22;6510;51.362;7.370;2022-10-31T04:00:07;11.40;99.90
12885;DHT22;6510;51.362;7.370;2022-10-31T04:02:36;11.40;99.90
12885;DHT22;6510;51.362;7.370;2022-10-31T04:05:04;11.50;99.90
12885;DHT22;6510;51.362;7.370;2022-10-31T04:07:37;11.50;99.90
12885;DHT22;6510;51.362;7.370;2022-10-31T04:10:07;11.60;99.90
12885;DHT22;6510;51.362;7.370;2022-10-31T04:12:35;11.60;99.90
12885;DHT22;6510;51.362;7.370;2022-10-31T04:15:03;11.50;99.90
12885;DHT22;6510;51.362;7.370;2022-10-31T04:17:33;11.60;99.90
12885;DHT22;6510;51.362;7.370;2022-10-31T04:20:00;11.60;99.90
12885;DHT22;6510;51.362;7.370;2022-10-31T04:22:26;11.60;99.90
12885;DHT22;6510;51.362;7.370;2022-10-31T04:24:52;11.60;99.90
12885;DHT22;6510;51.362;7.370;2022-10-31T04:27:17;11.50;99.90
12885;DHT22;6510;51.362;7.370;2022-10-31T04:29:43;11.40;99.90
12885;DHT22;6510;51.362;7.370;2022-10-31T04:32:08;11.40;99.90
12885;DHT22;6510;51.362;7.370;2022-10-31T04:34:34;11.40;99.90
12885;DHT22;6510;51.362;7.370;2022-10-31T04:37:00;11.50;99.90
12885;DHT22;6510;51.362;7.370;2022-10-31T04:39:25;11.40;99.90
12885;DHT22;6510;51.362;7.370;2022-10-31T04:41:51;11.40;99.90
12885;DHT22;6510;51.362;7.370;2022-10-31T04:44:17;11.50;99.90
12885;DHT22;6510;51.362;7.370;2022-10-31T04:46:43;11.50;99.90
12885;DHT22;6510;51.362;7.370;2022-10-31T04:49:08;11.50;99.90
12885;DHT22;6510;51.362;7.370;2022-10-31T04:51:34;11.60;99.90
12885;DHT22;6510;51.362;7.370;2022-10-31T04:53:59;11.70;99.90
12885;DHT22;6510;51.362;7.370;2022-10-31T04:56:25;11.70;99.90
12885;DHT22;6510;51.362;7.370;2022-10-31T04:58:51;11.60;99.90
12885;DHT22;6510;51.362;7.370;2022-10-31T05:01:17;11.70;99.90
12885;DHT22;6510;51.362;7.370;2022-10-31T05:03:42;11.50;99.90
12885;DHT22;6510;51.362;7.370;2022-10-31T05:06:08;11.50;99.90
12885;DHT22;6510;51.362;7.370;2022-10-31T05:08:34;11.40;99.90
12885;DHT22;6510;51.362;7.370;2022-10-31T05:11:00;11.30;99.90
12885;DHT22;6510;51.362;7.370;2022-10-31T05:13:27;11.40;99.90
12885;DHT22;6510;51.362;7.370;2022-10-31T05:15:52;11.40;99.90
12885;DHT22;6510;51.362;7.370;2022-10-31T05:18:18;11.40;99.90
12885;DHT22;6510;51.362;7.370;2022-10-31T05:20:44;11.40;99.90
12885;DHT22;6510;51.362;7.370;2022-10-31T05:23:09;11.40;99.90
12885;DHT22;6510;51.362;7.370;2022-10-31T05:25:35;11.40;99.90
12885;DHT22;6510;51.362;7.370;2022-10-31T05:28:01;11.40;99.90
12885;DHT22;6510;51.362;7.370;2022-10-31T05:30:28;11.40;99.90
12885;DHT22;6510;51.362;7.370;2022-10-31T05:32:55;11.30;99.90
12885;DHT22;6510;51.362;7.370;2022-10-31T05:35:49;11.20;99.90
12885;DHT22;6510;51.362;7.370;2022-10-31T05:38:25;11.30;99.90
12885;DHT22;6510;51.362;7.370;2022-10-31T05:41:01;11.20;99.90
12885;DHT22;6510;51.362;7.370;2022-10-31T05:43:27;11.30;99.90
12885;DHT22;6510;51.362;7.370;2022-10-31T05:45:54;11.40;99.90
12885;DHT22;6510;51.362;7.370;2022-10-31T05:48:20;11.40;99.90
12885;DHT22;6510;51.362;7.370;2022-10-31T05:50:48;11.30;99.90
12885;DHT22;6510;51.362;7.370;2022-10-31T05:53:14;11.30;99.90
12885;DHT22;6510;51.362;7.370;2022-10-31T05:55:40;11.40;99.90
12885;DHT22;6510;51.362;7.370;2022-10-31T05:58:09;11.30;99.90
12885;DHT22;6510;51.362;7.370;2022-10-31T06:00:35;11.40;99.90
12885;DHT22;6510;51.362;7.370;2022-10-31T06:03:04;11.40;99.90
12885;DHT22;6510;51.362;7.370;2022-10-31T06:05:30;11.40;99.90
12885;DHT22;6510;51.362;7.370;2022-10-31T06:07:56;11.20;99.90
12885;DHT22;6510;51.362;7.370;2022-10-31T06:10:22;11.20;99.90
12885;DHT22;6510;51.362;7.370;2022-10-31T06:12:48;11.10;99.90
12885;DHT22;6510;51.362;7.370;2022-10-31T06:15:14;11.10;99.90
12885;DHT22;6510;51.362;7.370;2022-10-31T06:17:40;11.10;99.90
12885;DHT22;6510;51.362;7.370;2022-10-31T06:20:06;11.20;99.90
12885;DHT22;6510;51.362;7.370;2022-10-31T06:22:32;11.20;99.90
12885;DHT22;6510;51.362;7.370;2022-10-31T06:24:58;11.10;99.90
12885;DHT22;6510;51.362;7.370;2022-10-31T06:27:23;11.00;99.90
12885;DHT22;6510;51.362;7.370;2022-10-31T06:29:49;11.10;99.90
12885;DHT22;6510;51.362;7.370;2022-10-31T06:32:16;11.00;99.90
12885;DHT22;6510;51.362;7.370;2022-10-31T06:34:42;11.00;99.90
12885;DHT22;6510;51.362;7.370;2022-10-31T06:37:10;11.10;99.90
12885;DHT22;6510;51.362;7.370;2022-10-31T06:39:36;11.10;99.90
12885;DHT22;6510;51.362;7.370;2022-10-31T06:42:02;11.10;99.90
12885;DHT22;6510;51.362;7.370;2022-10-31T06:44:28;11.20;99.90
12885;DHT22;6510;51.362;7.370;2022-10-31T06:46:54;11.30;99.90
12885;DHT22;6510;51.362;7.370;2022-10-31T06:49:19;11.40;99.90
12885;DHT22;6510;51.362;7.370;2022-10-31T06:51:48;11.40;99.90
12885;DHT22;6510;51.362;7.370;2022-10-31T06:54:17;11.50;99.90
12885;DHT22;6510;51.362;7.370;2022-10-31T06:56:45;11.60;99.90
12885;DHT22;6510;51.362;7.370;2022-10-31T06:59:10;11.70;99.90
12885;DHT22;6510;51.362;7.370;2022-10-31T07:01:36;11.70;99.90
12885;DHT22;6510;51.362;7.370;2022-10-31T07:04:02;11.90;99.90
12885;DHT22;6510;51.362;7.370;2022-10-31T07:06:27;11.90;99.90
12885;DHT22;6510;51.362;7.370;2022-10-31T07:08:53;11.90;99.90
12885;DHT22;6510;51.362;7.370;2022-10-31T07:11:18;12.00;99.90
12885;DHT22;6510;51.362;7.370;2022-10-31T07:13:44;12.10;99.90
12885;DHT22;6510;51.362;7.370;2022-10-31T07:16:10;12.20;99.90
12885;DHT22;6510;51.362;7.370;2022-10-31T07:18:38;12.10;99.90
12885;DHT22;6510;51.362;7.370;2022-10-31T07:21:04;12.10;99.90
12885;DHT22;6510;51.362;7.370;2022-10-31T07:23:29;12.20;99.90
12885;DHT22;6510;51.362;7.370;2022-10-31T07:25:56;12.40;99.90
12885;DHT22;6510;51.362;7.370;2022-10-31T07:28:23;12.40;99.90
12885;DHT22;6510;51.362;7.370;2022-10-31T07:30:52;12.50;99.90
12885;DHT22;6510;51.362;7.370;2022-10-31T07:33:18;12.60;99.90
12885;DHT22;6510;51.362;7.370;2022-10-31T07:35:44;12.50;99.90
12885;DHT22;6510;51.362;7.370;2022-10-31T07:38:11;12.50;99.90
12885;DHT22;6510;51.362;7.370;2022-10-31T07:40:41;12.50;99.90
12885;DHT22;6510;51.362;7.370;2022-10-31T07:43:08;12.40;99.90
12885;DHT22;6510;51.362;7.370;2022-10-31T07:45:34;12.40;99.90
12885;DHT22;6510;51.362;7.370;2022-10-31T07:47:59;12.40;99.90
12885;DHT22;6510;51.362;7.370;2022-10-31T07:50:29;12.30;99.90
12885;DHT22;6510;51.362;7.370;2022-10-31T07:55:25;12.30;99.90
12885;DHT22;6510;51.362;7.370;2022-10-31T07:57:58;12.20;99.90
12885;DHT22;6510;51.362;7.370;2022-10-31T08:00:24;12.40;99.90
12885;DHT22;6510;51.362;7.370;2022-10-31T08:03:03;12.50;99.90
12885;DHT22;6510;51.362;7.370;2022-10-31T08:05:30;12.60;99.90
12885;DHT22;6510;51.362;7.370;2022-10-31T08:07:56;12.80;99.90
12885;DHT22;6510;51.362;7.370;2022-10-31T08:10:23;12.90;99.90
12885;DHT22;6510;51.362;7.370;2022-10-31T08:13:09;12.80;99.90
12885;DHT22;6510;51.362;7.370;2022-10-31T08:15:36;12.70;99.90
12885;DHT22;6510;51.362;7.370;2022-10-31T08:18:05;12.80;99.90
12885;DHT22;6510;51.362;7.370;2022-10-31T08:20:31;13.10;99.90
12885;DHT22;6510;51.362;7.370;2022-10-31T08:23:03;13.20;99.90
12885;DHT22;6510;51.362;7.370;2022-10-31T08:25:30;13.40;99.90
12885;DHT22;6510;51.362;7.370;2022-10-31T08:27:56;13.60;99.90
12885;DHT22;6510;51.362;7.370;2022-10-31T08:30:25;13.90;99.90
12885;DHT22;6510;51.362;7.370;2022-10-31T08:33:17;13.90;99.90
12885;DHT22;6510;51.362;7.370;2022-10-31T08:35:43;13.80;99.90
12885;DHT22;6510;51.362;7.370;2022-10-31T08:38:11;13.70;99.90
12885;DHT22;6510;51.362;7.370;2022-10-31T08:40:37;13.80;99.90
12885;DHT22;6510;51.362;7.370;2022-10-31T08:43:10;14.10;99.90
12885;DHT22;6510;51.362;7.370;2022-10-31T08:45:36;14.30;99.90
12885;DHT22;6510;51.362;7.370;2022-10-31T08:48:04;14.40;99.90
12885;DHT22;6510;51.362;7.370;2022-10-31T08:50:31;14.50;99.90
12885;DHT22;6510;51.362;7.370;2022-10-31T08:53:17;14.90;99.90
12885;DHT22;6510;51.362;7.370;2022-10-31T08:55:44;15.30;99.90
12885;DHT22;6510;51.362;7.370;2022-10-31T08:58:12;15.30;99.90
12885;DHT22;6510;51.362;7.370;2022-10-31T09:00:38;15.10;99.90
12885;DHT22;6510;51.362;7.370;2022-10-31T09:03:06;15.00;99.90
12885;DHT22;6510;51.362;7.370;2022-10-31T09:05:32;15.00;99.90
12885;DHT22;6510;51.362;7.370;2022-10-31T09:07:59;15.10;99.90
12885;DHT22;6510;51.362;7.370;2022-10-31T09:10:28;15.10;99.90
12885;DHT22;6510;51.362;7.370;2022-10-31T09:13:02;15.20;99.90
12885;DHT22;6510;51.362;7.370;2022-10-31T09:15:32;15.20;99.90
12885;DHT22;6510;51.362;7.370;2022-10-31T09:17:58;15.40;99.90
12885;DHT22;6510;51.362;7.370;2022-10-31T09:20:24;15.40;99.90
12885;DHT22;6510;51.362;7.370;2022-10-31T09:23:01;15.70;99.90
12885;DHT22;6510;51.362;7.370;2022-10-31T09:25:28;15.60;99.90
12885;DHT22;6510;51.362;7.370;2022-10-31T09:27:58;15.60;99.90
12885;DHT22;6510;51.362;7.370;2022-10-31T09:30:25;15.70;99.90
12885;DHT22;6510;51.362;7.370;2022-10-31T09:32:55;16.10;99.90
12885;DHT22;6510;51.362;7.370;2022-10-31T09:35:22;16.60;99.90
12885;DHT22;6510;51.362;7.370;2022-10-31T09:37:54;17.30;99.90
12885;DHT22;6510;51.362;7.370;2022-10-31T09:40:20;16.90;99.90
12885;DHT22;6510;51.362;7.370;2022-10-31T09:48:46;16.00;99.90
12885;DHT22;6510;51.362;7.370;2022-10-31T09:51:28;15.90;99.90
12885;DHT22;6510;51.362;7.370;2022-10-31T09:56:44;15.70;99.90
12885;DHT22;6510;51.362;7.370;2022-10-31T09:59:38;15.50;99.90
12885;DHT22;6510;51.362;7.370;2022-10-31T10:02:05;15.70;99.90
12885;DHT22;6510;51.362;7.370;2022-10-31T10:12:47;16.20;99.90
12885;DHT22;6510;51.362;7.370;2022-10-31T10:26:25;16.80;99.90
12885;DHT22;6510;51.362;7.370;2022-10-31T10:28:57;16.90;99.90
12885;DHT22;6510;51.362;7.370;2022-10-31T10:31:27;17.40;99.90
12885;DHT22;6510;51.362;7.370;2022-10-31T10:36:48;17.70;99.90
12885;DHT22;6510;51.362;7.370;2022-10-31T10:39:36;18.10;99.90
12885;DHT22;6510;51.362;7.370;2022-10-31T10:42:13;18.10;99.90
12885;DHT22;6510;51.362;7.370;2022-10-31T10:44:58;18.20;99.90
12885;DHT22;6510;51.362;7.370;2022-10-31T10:47:45;18.80;99.90
12885;DHT22;6510;51.362;7.370;2022-10-31T10:50:20;19.60;99.90
12885;DHT22;6510;51.362;7.370;2022-10-31T10:55:36;20.70;99.90
12885;DHT22;6510;51.362;7.370;2022-10-31T10:58:09;22.20;99.90
12885;DHT22;6510;51.362;7.370;2022-10-31T11:00:45;22.90;99.90
12885;DHT22;6510;51.362;7.370;2022-10-31T11:03:13;22.40;99.90
12885;DHT22;6510;51.362;7.370;2022-10-31T11:05:40;22.20;99.90
12885;DHT22;6510;51.362;7.370;2022-10-31T11:08:08;22.50;99.90
12885;DHT22;6510;51.362;7.370;2022-10-31T11:10:37;22.80;99.90
12885;DHT22;6510;51.362;7.370;2022-10-31T11:15:50;24.70;99.90
12885;DHT22;6510;51.362;7.370;2022-10-31T11:18:22;24.00;99.90
12885;DHT22;6510;51.362;7.370;2022-10-31T11:20:54;23.40;99.90
12885;DHT22;6510;51.362;7.370;2022-10-31T11:23:24;23.70;99.90
12885;DHT22;6510;51.362;7.370;2022-10-31T11:26:02;23.40;99.90
12885;DHT22;6510;51.362;7.370;2022-10-31T11:28:29;23.00;99.90
12885;DHT22;6510;51.362;7.370;2022-10-31T11:31:07;22.80;99.90
12885;DHT22;6510;51.362;7.370;2022-10-31T11:38:42;20.30;99.90
12885;DHT22;6510;51.362;7.370;2022-10-31T11:41:17;20.10;99.90
12885;DHT22;6510;51.362;7.370;2022-10-31T11:44:21;19.90;99.90
12885;DHT22;6510;51.362;7.370;2022-10-31T11:47:04;19.50;99.90
12885;DHT22;6510;51.362;7.370;2022-10-31T11:49:36;19.50;99.90
12885;DHT22;6510;51.362;7.370;2022-10-31T11:52:24;19.50;99.90
12885;DHT22;6510;51.362;7.370;2022-10-31T11:55:00;19.60;99.90
12885;DHT22;6510;51.362;7.370;2022-10-31T11:57:31;19.70;99.90
12885;DHT22;6510;51.362;7.370;2022-10-31T12:00:02;19.50;99.90
12885;DHT22;6510;51.362;7.370;2022-10-31T12:02:29;19.40;99.90
12885;DHT22;6510;51.362;7.370;2022-10-31T12:07:23;19.70;99.90
12885;DHT22;6510;51.362;7.370;2022-10-31T12:09:49;19.80;99.90
12885;DHT22;6510;51.362;7.370;2022-10-31T12:12:33;20.00;99.90
12885;DHT22;6510;51.362;7.370;2022-10-31T12:26:16;20.90;99.90
12885;DHT22;6510;51.362;7.370;2022-10-31T12:31:43;20.80;99.90
12885;DHT22;6510;51.362;7.370;2022-10-31T12:35:03;20.90;99.90
12885;DHT22;6510;51.362;7.370;2022-10-31T12:37:18;21.10;99.90
12885;DHT22;6510;51.362;7.370;2022-10-31T12:40:01;21.30;99.90
12885;DHT22;6510;51.362;7.370;2022-10-31T12:56:38;21.20;99.90
12885;DHT22;6510;51.362;7.370;2022-10-31T12:59:18;21.60;99.90
12885;DHT22;6510;51.362;7.370;2022-10-31T13:01:55;21.80;99.90
12885;DHT22;6510;51.362;7.370;2022-10-31T13:04:44;21.90;99.90
12885;DHT22;6510;51.362;7.370;2022-10-31T13:07:31;22.40;99.90
12885;DHT22;6510;51.362;7.370;2022-10-31T13:12:27;21.90;99.90
12885;DHT22;6510;51.362;7.370;2022-10-31T13:14:56;21.70;99.90
12885;DHT22;6510;51.362;7.370;2022-10-31T13:17:34;21.60;99.90
12885;DHT22;6510;51.362;7.370;2022-10-31T13:20:19;21.50;99.90
12885;DHT22;6510;51.362;7.370;2022-10-31T13:22:49;21.10;99.90
12885;DHT22;6510;51.362;7.370;2022-10-31T13:28:05;20.20;99.90
12885;DHT22;6510;51.362;7.370;2022-10-31T13:30:39;20.10;99.90
12885;DHT22;6510;51.362;7.370;2022-10-31T13:33:24;19.80;99.90
12885;DHT22;6510;51.362;7.370;2022-10-31T13:38:57;19.50;99.90
12885;DHT22;6510;51.362;7.370;2022-10-31T13:44:36;19.60;99.90
12885;DHT22;6510;51.362;7.370;2022-10-31T13:49:46;20.00;99.90
12885;DHT22;6510;51.362;7.370;2022-10-31T13:52:22;19.70;99.90
12885;DHT22;6510;51.362;7.370;2022-10-31T13:54:51;19.80;99.90
12885;DHT22;6510;51.362;7.370;2022-10-31T13:57:42;20.20;99.90
12885;DHT22;6510;51.362;7.370;2022-10-31T14:02:49;20.10;99.90
12885;DHT22;6510;51.362;7.370;2022-10-31T14:05:27;20.00;99.90
12885;DHT22;6510;51.362;7.370;2022-10-31T14:08:03;19.70;99.90
12885;DHT22;6510;51.362;7.370;2022-10-31T14:10:37;19.50;99.90
12885;DHT22;6510;51.362;7.370;2022-10-31T14:13:32;19.50;99.90
12885;DHT22;6510;51.362;7.370;2022-10-31T14:16:05;19.70;99.90
12885;DHT22;6510;51.362;7.370;2022-10-31T14:18:39;20.30;99.90
12885;DHT22;6510;51.362;7.370;2022-10-31T14:23:52;20.80;99.90
12885;DHT22;6510;51.362;7.370;2022-10-31T14:28:48;20.90;99.90
12885;DHT22;6510;51.362;7.370;2022-10-31T14:31:39;20.30;99.90
12885;DHT22;6510;51.362;7.370;2022-10-31T14:36:59;20.30;99.90
12885;DHT22;6510;51.362;7.370;2022-10-31T14:44:56;19.60;99.90
12885;DHT22;6510;51.362;7.370;2022-10-31T14:47:47;19.80;99.90
12885;DHT22;6510;51.362;7.370;2022-10-31T14:53:06;19.90;99.90
12885;DHT22;6510;51.362;7.370;2022-10-31T14:55:45;19.70;99.90
12885;DHT22;6510;51.362;7.370;2022-10-31T14:58:42;19.80;99.90
12885;DHT22;6510;51.362;7.370;2022-10-31T15:01:32;19.90;99.90
12885;DHT22;6510;51.362;7.370;2022-10-31T15:04:36;19.20;99.90
12885;DHT22;6510;51.362;7.370;2022-10-31T15:07:06;19.00;99.90
12885;DHT22;6510;51.362;7.370;2022-10-31T15:09:34;18.90;99.90
12885;DHT22;6510;51.362;7.370;2022-10-31T15:12:16;18.80;99.90
12885;DHT22;6510;51.362;7.370;2022-10-31T15:14:46;18.80;99.90
12885;DHT22;6510;51.362;7.370;2022-10-31T15:17:12;18.70;99.90
12885;DHT22;6510;51.362;7.370;2022-10-31T15:19:38;18.60;99.90
12885;DHT22;6510;51.362;7.370;2022-10-31T15:22:04;18.60;99.90
12885;DHT22;6510;51.362;7.370;2022-10-31T15:24:33;18.60;99.90
12885;DHT22;6510;51.362;7.370;2022-10-31T15:27:00;18.70;99.90
12885;DHT22;6510;51.362;7.370;2022-10-31T15:29:26;18.60;99.90
12885;DHT22;6510;51.362;7.370;2022-10-31T15:32:00;18.60;99.90
12885;DHT22;6510;51.362;7.370;2022-10-31T15:34:40;18.50;99.90
12885;DHT22;6510;51.362;7.370;2022-10-31T15:37:14;18.60;99.90
12885;DHT22;6510;51.362;7.370;2022-10-31T15:39:41;18.50;99.90
12885;DHT22;6510;51.362;7.370;2022-10-31T15:44:47;18.40;99.90
12885;DHT22;6510;51.362;7.370;2022-10-31T15:47:19;18.40;99.90
12885;DHT22;6510;51.362;7.370;2022-10-31T15:50:00;18.40;99.90
12885;DHT22;6510;51.362;7.370;2022-10-31T15:52:38;18.40;99.90
12885;DHT22;6510;51.362;7.370;2022-10-31T15:55:15;18.50;99.90
12885;DHT22;6510;51.362;7.370;2022-10-31T15:57:50;18.40;99.90
12885;DHT22;6510;51.362;7.370;2022-10-31T16:00:25;18.30;99.90
12885;DHT22;6510;51.362;7.370;2022-10-31T16:03:03;18.30;99.90
12885;DHT22;6510;51.362;7.370;2022-10-31T16:05:38;18.10;99.90
12885;DHT22;6510;51.362;7.370;2022-10-31T16:08:19;17.90;99.90
12885;DHT22;6510;51.362;7.370;2022-10-31T16:10:47;18.10;99.90
12885;DHT22;6510;51.362;7.370;2022-10-31T16:13:12;17.90;99.90
12885;DHT22;6510;51.362;7.370;2022-10-31T16:15:51;17.80;99.90
12885;DHT22;6510;51.362;7.370;2022-10-31T16:18:47;17.80;99.90
12885;DHT22;6510;51.362;7.370;2022-10-31T16:21:13;17.80;99.90
12885;DHT22;6510;51.362;7.370;2022-10-31T16:23:44;17.70;99.90
12885;DHT22;6510;51.362;7.370;2022-10-31T16:26:16;17.70;99.90
12885;DHT22;6510;51.362;7.370;2022-10-31T16:28:53;17.70;99.90
12885;DHT22;6510;51.362;7.370;2022-10-31T16:31:37;17.50;99.90
12885;DHT22;6510;51.362;7.370;2022-10-31T16:34:09;17.60;99.90
12885;DHT22;6510;51.362;7.370;2022-10-31T16:36:36;17.50;99.90
12885;DHT22;6510;51.362;7.370;2022-10-31T16:39:04;17.50;99.90
12885;DHT22;6510;51.362;7.370;2022-10-31T16:41:30;17.50;99.90
12885;DHT22;6510;51.362;7.370;2022-10-31T16:43:57;17.40;99.90
12885;DHT22;6510;51.362;7.370;2022-10-31T16:46:24;17.40;99.90
12885;DHT22;6510;51.362;7.370;2022-10-31T16:48:51;17.50;99.90
12885;DHT22;6510;51.362;7.370;2022-10-31T16:51:17;17.40;99.90
12885;DHT22;6510;51.362;7.370;2022-10-31T16:53:43;17.40;99.90
12885;DHT22;6510;51.362;7.370;2022-10-31T16:56:16;17.40;99.90
12885;DHT22;6510;51.362;7.370;2022-10-31T16:58:45;17.40;99.90
12885;DHT22;6510;51.362;7.370;2022-10-31T17:01:12;17.40;99.90
12885;DHT22;6510;51.362;7.370;2022-10-31T17:03:38;17.50;99.90
12885;DHT22;6510;51.362;7.370;2022-10-31T17:06:04;17.40;99.90
12885;DHT22;6510;51.362;7.370;2022-10-31T17:08:30;17.30;99.90
12885;DHT22;6510;51.362;7.370;2022-10-31T17:11:04;17.40;99.90
12885;DHT22;6510;51.362;7.370;2022-10-31T17:13:33;17.40;99.90
12885;DHT22;6510;51.362;7.370;2022-10-31T17:16:32;17.40;99.90
12885;DHT22;6510;51.362;7.370;2022-10-31T17:18:57;17.40;99.90
12885;DHT22;6510;51.362;7.370;2022-10-31T17:21:29;17.40;99.90
12885;DHT22;6510;51.362;7.370;2022-10-31T17:23:55;17.40;99.90
12885;DHT22;6510;51.362;7.370;2022-10-31T17:26:53;17.50;99.90
12885;DHT22;6510;51.362;7.370;2022-10-31T17:29:19;17.40;99.90
12885;DHT22;6510;51.362;7.370;2022-10-31T17:31:59;17.40;99.90
12885;DHT22;6510;51.362;7.370;2022-10-31T17:34:27;17.20;99.90
12885;DHT22;6510;51.362;7.370;2022-10-31T17:37:14;17.20;99.90
12885;DHT22;6510;51.362;7.370;2022-10-31T17:39:40;17.20;99.90
12885;DHT22;6510;51.362;7.370;2022-10-31T17:42:05;17.20;99.90
12885;DHT22;6510;51.362;7.370;2022-10-31T17:44:38;17.20;99.90
12885;DHT22;6510;51.362;7.370;2022-10-31T17:47:04;17.20;99.90
12885;DHT22;6510;51.362;7.370;2022-10-31T17:49:33;17.10;99.90
12885;DHT22;6510;51.362;7.370;2022-10-31T17:51:59;17.20;99.90
12885;DHT22;6510;51.362;7.370;2022-10-31T17:54:25;17.20;99.90
12885;DHT22;6510;51.362;7.370;2022-10-31T17:56:55;17.20;99.90
12885;DHT22;6510;51.362;7.370;2022-10-31T17:59:25;17.30;99.90
12885;DHT22;6510;51.362;7.370;2022-10-31T18:01:54;17.30;99.90
12885;DHT22;6510;51.362;7.370;2022-10-31T18:04:26;17.20;99.90
12885;DHT22;6510;51.362;7.370;2022-10-31T18:06:55;17.10;99.90
12885;DHT22;6510;51.362;7.370;2022-10-31T18:09:21;17.10;99.90
12885;DHT22;6510;51.362;7.370;2022-10-31T18:11:46;17.00;99.90
12885;DHT22;6510;51.362;7.370;2022-10-31T18:14:12;17.00;99.90
12885;DHT22;6510;51.362;7.370;2022-10-31T18:16:38;17.00;99.90
12885;DHT22;6510;51.362;7.370;2022-10-31T18:19:03;16.90;99.90
12885;DHT22;6510;51.362;7.370;2022-10-31T18:21:31;16.90;99.90
12885;DHT22;6510;51.362;7.370;2022-10-31T18:23:58;16.90;99.90